Connexion S'enregistrer

Connexion à votre compte

Identifiant
Mot de passe
Maintenir la connexion active sur ce site

Créer un compte

Pour valider ce formulaire, vous devez remplir tous les champs.
Nom
Identifiant
Mot de passe
Répétez le mot de passe
Adresse e-mail
Répétez l'adresse e-mail

Nous contacter

 Téléphone : +33 (0)4 79 54 41 81

Coordonnées détaillées et accès : cliquez ici

 
LFLB °C
    Ferienhaus Ostsee
[source: ADDS]
METAR
LFLB 151500Z AUTO VRB02KT CAVOK 08/02 Q1000 NOSIG =
TAF AMD LFLB 151118Z 1511/1606 18006KT 9999 SCT010 BKN045 PROB40 TEMPO 1511/1513 BKN010 BECMG 1512/1514 36005KT CAVOK PROB30 TEMPO 1602/1606 -RA BKN030
TAF
TAF AMD LFLB 151118Z 1511/1606 18006KT 9999 SCT010 BKN045 PROB40 TEMPO 1511/1513 BKN010 BECMG 1512/1514 36005KT CAVOK PROB30 TEMPO 1602/1606 -RA BKN030 =
SR / SS: 06:35 / 16:06 UTC (Lever/Coucher du soleil le 2019-11-15)
JSN Boot template designed by JoomlaShine.com